Time;durP1;ratioP1;P1;durP2;ratioP2;P2;SDS_P1;SDS_P2;PMS_P1;PMS_P2;Temp;Humidity;BMP_temperature;BMP_pressure;BME280_temperature;BME280_humidity;BME280_pressure;Samples;Min_cycle;Max_cycle;Signal;HPM_P1;HPM_P2
2022/12/25 00:14:09;;;;;;;30.58;19.77;;;10.00;99.90;;;;;;6036967;23;20525;-66
2022/12/25 00:16:35;;;;;;;27.27;19.95;;;10.00;99.90;;;;;;6095500;23;20022;-68
2022/12/25 00:19:01;;;;;;;31.20;20.77;;;10.00;99.90;;;;;;6184877;23;20008;-68
2022/12/25 00:21:27;;;;;;;30.53;21.80;;;9.90;99.90;;;;;;6185311;23;20005;-68
2022/12/25 00:23:54;;;;;;;29.35;21.40;;;10.00;99.90;;;;;;6187585;23;20297;-68
2022/12/25 00:26:21;;;;;;;31.80;23.00;;;9.90;99.90;;;;;;6187104;23;20005;-68
2022/12/25 00:28:46;;;;;;;40.00;29.05;;;9.90;99.90;;;;;;6187100;23;19997;-68
2022/12/25 00:31:15;;;;;;;46.42;33.08;;;10.00;99.90;;;;;;6186770;23;20064;-68
2022/12/25 00:33:43;;;;;;;49.20;34.30;;;9.90;99.90;;;;;;6186617;23;20005;-68
2022/12/25 00:36:10;;;;;;;48.30;33.92;;;9.90;99.90;;;;;;6186716;23;20432;-68
2022/12/25 00:38:37;;;;;;;45.78;33.20;;;9.90;99.90;;;;;;6186965;23;20357;-68
2022/12/25 00:41:08;;;;;;;39.85;30.42;;;10.00;99.90;;;;;;6187063;23;20027;-68
2022/12/25 00:43:34;;;;;;;48.80;36.67;;;9.90;99.90;;;;;;6185671;23;20001;-68
2022/12/25 00:46:02;;;;;;;58.25;41.20;;;10.00;99.90;;;;;;6186897;23;20060;-68
2022/12/25 00:48:28;;;;;;;57.78;43.28;;;10.00;99.90;;;;;;6186869;23;20012;-68
2022/12/25 00:50:56;;;;;;;55.20;43.55;;;10.00;99.90;;;;;;6186808;23;20458;-68
2022/12/25 00:53:22;;;;;;;57.75;45.08;;;10.00;99.90;;;;;;6186941;23;20006;-67
2022/12/25 00:55:54;;;;;;;58.23;44.77;;;10.00;99.90;;;;;;6187084;23;20107;-68
2022/12/25 00:58:20;;;;;;;59.60;43.83;;;10.00;99.90;;;;;;6186827;23;20001;-68
2022/12/25 01:00:46;;;;;;;64.97;46.65;;;10.00;99.90;;;;;;6186427;23;20073;-68
2022/12/25 01:03:12;;;;;;;59.63;45.38;;;10.00;99.90;;;;;;6186919;23;20009;-68
2022/12/25 01:05:38;;;;;;;64.60;45.70;;;10.00;99.90;;;;;;6186610;23;20031;-68
2022/12/25 01:08:04;;;;;;;61.78;45.40;;;10.00;99.90;;;;;;6186467;23;20005;-68
2022/12/25 01:10:29;;;;;;;60.17;45.40;;;9.90;99.90;;;;;;6186872;23;20005;-68
2022/12/25 01:12:55;;;;;;;57.63;43.60;;;9.90;99.90;;;;;;6186474;23;20116;-68
2022/12/25 01:15:21;;;;;;;63.65;44.20;;;9.90;99.90;;;;;;6191919;23;20016;-68
2022/12/25 01:17:47;;;;;;;60.08;45.65;;;9.90;99.90;;;;;;6216493;23;20009;-68
2022/12/25 01:20:14;;;;;;;59.08;44.03;;;9.90;99.90;;;;;;6216185;23;20063;-68
2022/12/25 01:22:41;;;;;;;60.45;44.60;;;9.90;99.90;;;;;;6216630;23;19996;-68
2022/12/25 01:25:08;;;;;;;57.63;44.05;;;9.90;99.90;;;;;;6217185;23;20062;-68
2022/12/25 01:27:33;;;;;;;63.40;46.73;;;9.90;99.90;;;;;;6217183;23;20000;-68
2022/12/25 01:30:00;;;;;;;59.03;45.88;;;9.90;99.90;;;;;;6217069;23;20012;-68
2022/12/25 01:32:26;;;;;;;59.22;45.70;;;9.90;99.90;;;;;;6217074;23;20028;-68
2022/12/25 01:55:02;;;;;;;60.00;43.60;;;9.90;99.90;;;;;;5871400;24;20338;-68
2022/12/25 02:01:12;;;;;;;52.65;38.28;;;9.90;99.90;;;;;;5844003;24;20578;-67
2022/12/25 02:03:41;;;;;;;52.73;39.87;;;9.90;99.90;;;;;;5935822;23;20015;-68
2022/12/25 02:06:08;;;;;;;50.53;37.58;;;9.90;99.90;;;;;;6054893;23;20010;-68
2022/12/25 02:08:34;;;;;;;57.78;39.53;;;9.90;99.90;;;;;;6170840;23;20075;-68
2022/12/25 02:10:59;;;;;;;54.73;39.87;;;9.90;99.90;;;;;;6215770;23;20028;-68
2022/12/25 02:13:25;;;;;;;47.38;36.03;;;9.90;99.90;;;;;;6215545;23;20000;-68
2022/12/25 02:16:14;;;;;;;49.85;35.63;;;9.90;99.90;;;;;;6215843;23;20042;-68
2022/12/25 02:18:40;;;;;;;46.90;32.90;;;9.90;99.90;;;;;;6216048;23;19997;-68
2022/12/25 02:21:15;;;;;;;40.17;29.63;;;9.90;99.90;;;;;;6215518;23;20017;-68
2022/12/25 02:24:03;;;;;;;41.70;28.00;;;10.00;99.90;;;;;;6215908;23;20319;-68
2022/12/25 02:26:35;;;;;;;36.40;27.00;;;9.90;99.90;;;;;;6195969;23;20327;-68
2022/12/25 02:29:22;;;;;;;34.00;25.63;;;10.00;99.90;;;;;;6215455;23;20419;-68
2022/12/25 02:32:05;;;;;;;31.67;22.75;;;9.90;99.90;;;;;;6215772;23;20000;-68
2022/12/25 02:34:42;;;;;;;31.23;22.83;;;10.00;99.90;;;;;;6215836;23;20485;-68
2022/12/25 02:37:13;;;;;;;29.40;21.60;;;10.00;99.90;;;;;;6215461;23;20009;-68
2022/12/25 02:39:56;;;;;;;24.30;19.40;;;9.90;99.90;;;;;;6215614;23;20044;-68
2022/12/25 03:08:36;;;;;;;39.33;27.60;;;10.00;99.90;;;;;;6215815;23;20054;-68
2022/12/25 03:16:53;;;;;;;42.73;32.00;;;10.00;99.90;;;;;;6216084;23;20143;-68
2022/12/25 04:36:13;;;;;;;55.50;38.70;;;9.90;99.90;;;;;;6216979;23;20020;-68
2022/12/25 04:38:40;;;;;;;49.17;37.03;;;9.90;99.90;;;;;;6217135;23;20005;-68
2022/12/25 04:41:07;;;;;;;62.10;39.73;;;9.90;99.90;;;;;;6217216;23;20412;-68
2022/12/25 04:43:33;;;;;;;60.67;39.00;;;9.90;99.90;;;;;;6216557;23;20004;-68
2022/12/25 04:46:01;;;;;;;54.23;38.17;;;9.90;99.90;;;;;;6216838;23;20004;-68
2022/12/25 04:48:29;;;;;;;51.40;37.57;;;9.90;99.90;;;;;;6216902;23;20008;-68
2022/12/25 04:50:55;;;;;;;46.70;32.13;;;9.90;99.90;;;;;;6216961;23;20412;-68
2022/12/25 04:53:21;;;;;;;44.93;33.50;;;9.90;99.90;;;;;;6216629;23;20009;-68
2022/12/25 04:55:47;;;;;;;41.03;30.63;;;9.90;99.90;;;;;;6216926;23;20061;-68
2022/12/25 04:58:12;;;;;;;41.22;27.15;;;9.90;99.90;;;;;;6216832;23;20009;-68
2022/12/25 05:00:38;;;;;;;37.17;26.92;;;9.90;99.90;;;;;;6216916;23;20335;-68
2022/12/25 05:03:04;;;;;;;35.23;27.07;;;9.90;99.90;;;;;;6217315;23;20024;-68
2022/12/25 05:05:30;;;;;;;32.63;26.60;;;9.90;99.90;;;;;;6217173;23;20313;-68
2022/12/25 05:07:56;;;;;;;32.30;25.25;;;9.90;99.90;;;;;;6216774;23;19997;-68
2022/12/25 05:10:23;;;;;;;33.73;25.47;;;9.90;99.90;;;;;;6217655;23;20005;-68
2022/12/25 05:13:23;;;;;;;32.63;22.98;;;9.90;99.90;;;;;;6217070;23;20099;-68
2022/12/25 05:16:37;;;;;;;30.65;22.65;;;9.90;99.90;;;;;;6037164;23;20030;-68
2022/12/25 05:30:46;;;;;;;;;;;;;;;;;;;;;
2022/12/25 05:33:45;;;;;;;27.73;20.52;;;9.90;99.90;;;;;;5791210;24;20026;-68
2022/12/25 05:40:27;;;;;;;30.13;22.92;;;9.90;99.90;;;;;;5791483;24;20039;-68
2022/12/25 05:42:53;;;;;;;31.73;23.70;;;9.90;99.90;;;;;;5830152;24;20422;-68
2022/12/25 05:45:19;;;;;;;33.50;25.40;;;9.90;99.90;;;;;;6021395;23;20014;-68
2022/12/25 05:47:45;;;;;;;33.90;25.55;;;9.90;99.90;;;;;;6095340;23;20011;-68
2022/12/25 05:50:11;;;;;;;31.27;24.20;;;9.90;99.90;;;;;;6094967;23;20093;-68
2022/12/25 05:52:36;;;;;;;33.53;25.25;;;9.90;99.90;;;;;;6094935;23;20086;-68
2022/12/25 05:55:02;;;;;;;37.60;25.20;;;9.90;99.90;;;;;;6095100;23;20003;-68
2022/12/25 05:57:29;;;;;;;32.17;23.58;;;9.90;99.90;;;;;;6094698;23;20010;-68
2022/12/25 05:59:55;;;;;;;29.57;22.03;;;9.80;99.90;;;;;;6146564;23;20339;-68
2022/12/25 06:02:21;;;;;;;25.15;21.05;;;9.80;99.90;;;;;;6186208;23;20001;-68
2022/12/25 06:04:46;;;;;;;26.20;19.65;;;9.80;99.90;;;;;;6185981;23;19997;-68
2022/12/25 06:07:12;;;;;;;29.02;20.13;;;9.80;99.90;;;;;;6185946;23;20029;-68
2022/12/25 06:09:38;;;;;;;25.00;18.77;;;9.80;99.90;;;;;;6186136;23;20016;-68
2022/12/25 06:12:04;;;;;;;25.98;18.50;;;9.80;99.90;;;;;;6186032;23;20025;-68
2022/12/25 06:14:29;;;;;;;29.37;18.17;;;9.80;99.90;;;;;;6186244;23;20081;-68
2022/12/25 06:16:55;;;;;;;21.85;16.58;;;9.80;99.90;;;;;;6186015;23;20011;-68
2022/12/25 06:19:21;;;;;;;21.92;17.15;;;9.70;99.90;;;;;;6184844;23;20001;-68
2022/12/25 06:21:51;;;;;;;18.60;14.52;;;9.70;99.90;;;;;;6200471;23;20016;-68
2022/12/25 06:24:17;;;;;;;18.45;14.50;;;9.70;99.90;;;;;;6215852;23;20119;-68
2022/12/25 06:26:42;;;;;;;22.40;14.67;;;9.70;99.90;;;;;;6216128;23;20051;-67
2022/12/25 06:29:08;;;;;;;20.42;13.65;;;9.70;99.90;;;;;;6215685;23;20005;-67
2022/12/25 06:31:34;;;;;;;17.15;13.02;;;9.70;99.90;;;;;;6215776;23;20000;-67
2022/12/25 06:34:00;;;;;;;19.80;11.80;;;9.70;99.90;;;;;;6215755;23;20062;-68
2022/12/25 06:36:28;;;;;;;13.40;10.73;;;9.70;99.90;;;;;;6215901;23;20007;-67
2022/12/25 06:38:54;;;;;;;16.52;11.52;;;9.70;99.90;;;;;;6215828;23;20005;-67
2022/12/25 06:41:23;;;;;;;17.65;12.32;;;9.70;99.90;;;;;;6215450;23;20016;-68
2022/12/25 06:43:51;;;;;;;14.88;9.98;;;9.70;99.90;;;;;;6215972;23;20009;-67
2022/12/25 06:46:18;;;;;;;13.90;9.23;;;9.70;99.90;;;;;;6215577;23;20051;-68
2022/12/25 06:48:48;;;;;;;13.02;9.40;;;9.70;99.90;;;;;;6216496;23;20004;-68
2022/12/25 06:51:18;;;;;;;15.77;9.47;;;9.60;99.90;;;;;;6216318;23;20020;-67
2022/12/25 06:53:44;;;;;;;12.63;8.90;;;9.70;99.90;;;;;;6216297;23;20001;-68
2022/12/25 06:56:15;;;;;;;11.85;9.30;;;9.70;99.90;;;;;;6216038;23;20001;-68
2022/12/25 06:58:46;;;;;;;18.60;10.13;;;9.70;99.90;;;;;;6215951;23;20008;-68
2022/12/25 07:08:37;;;;;;;14.93;9.63;;;9.70;99.90;;;;;;6009303;23;20022;-68
2022/12/25 07:25:51;;;;;;;16.73;12.32;;;9.70;99.90;;;;;;5976800;23;20071;-68
2022/12/25 07:28:21;;;;;;;16.50;12.60;;;9.80;99.90;;;;;;6026113;23;20362;-68
2022/12/25 07:30:50;;;;;;;20.03;12.70;;;9.80;99.90;;;;;;6085871;23;20126;-68
2022/12/25 07:33:16;;;;;;;17.00;10.43;;;9.80;99.90;;;;;;6181642;23;20150;-68
2022/12/25 07:35:43;;;;;;;16.42;9.50;;;9.80;99.90;;;;;;6215413;23;20013;-68
2022/12/25 07:38:09;;;;;;;14.88;9.07;;;9.80;99.90;;;;;;6214765;23;20610;-68
2022/12/25 07:40:35;;;;;;;13.50;8.73;;;9.80;99.90;;;;;;6214932;23;20012;-68
2022/12/25 07:43:01;;;;;;;18.17;8.73;;;9.80;99.90;;;;;;6214045;23;20327;-67
2022/12/25 07:45:27;;;;;;;12.52;8.07;;;9.80;99.90;;;;;;6214622;23;20000;-68
2022/12/25 07:47:53;;;;;;;13.10;8.17;;;9.80;99.90;;;;;;6214634;23;20005;-68
2022/12/25 07:50:19;;;;;;;12.60;7.93;;;9.80;99.90;;;;;;6214910;23;20012;-68
2022/12/25 07:52:45;;;;;;;12.82;7.63;;;9.90;99.90;;;;;;6214043;23;20047;-68
2022/12/25 07:55:12;;;;;;;10.82;7.65;;;9.80;99.90;;;;;;6214182;23;20011;-67
2022/12/25 07:57:38;;;;;;;16.93;8.33;;;9.90;99.90;;;;;;6214589;23;20008;-68
2022/12/25 08:00:05;;;;;;;10.80;7.93;;;9.90;99.90;;;;;;6214136;23;20017;-68
2022/12/25 08:02:31;;;;;;;15.98;8.88;;;9.90;99.90;;;;;;6214376;23;20004;-68
2022/12/25 08:04:57;;;;;;;10.50;7.63;;;9.90;99.90;;;;;;6214369;23;20004;-68
2022/12/25 08:07:23;;;;;;;13.80;7.83;;;9.90;99.90;;;;;;6214537;23;20420;-68
2022/12/25 08:09:51;;;;;;;12.65;7.78;;;10.00;99.90;;;;;;6214358;23;20052;-68
2022/12/25 08:12:16;;;;;;;12.25;8.43;;;10.00;99.90;;;;;;6214317;23;20003;-68
2022/12/25 08:14:42;;;;;;;17.53;8.70;;;10.00;99.90;;;;;;6214288;23;20005;-68
2022/12/25 08:17:08;;;;;;;15.43;10.70;;;10.00;99.90;;;;;;6214284;23;20007;-66
2022/12/25 08:19:33;;;;;;;20.90;13.50;;;10.00;99.90;;;;;;6214146;23;20029;-68
2022/12/25 08:21:59;;;;;;;19.45;13.82;;;10.00;99.90;;;;;;6214158;23;20039;-68
2022/12/25 08:24:25;;;;;;;21.40;15.10;;;10.10;99.90;;;;;;6214119;23;20055;-68
2022/12/25 08:26:51;;;;;;;19.40;15.65;;;10.00;99.90;;;;;;6214243;23;20104;-68
2022/12/25 08:29:16;;;;;;;21.33;16.08;;;10.00;99.90;;;;;;6214797;23;20008;-68
2022/12/25 08:31:43;;;;;;;25.15;16.50;;;10.10;99.90;;;;;;6214323;23;20005;-68
2022/12/25 08:34:10;;;;;;;26.05;18.95;;;10.10;99.90;;;;;;6214212;23;20004;-68
2022/12/25 08:36:36;;;;;;;25.02;19.48;;;10.00;99.90;;;;;;6214017;23;20001;-68
2022/12/25 08:39:04;;;;;;;31.98;23.48;;;10.10;99.90;;;;;;6214306;23;19997;-68
2022/12/25 08:41:31;;;;;;;30.58;23.30;;;10.10;99.90;;;;;;6214644;23;20008;-68
2022/12/25 08:43:57;;;;;;;33.93;25.97;;;10.10;99.90;;;;;;6215765;23;19996;-68
2022/12/25 08:46:23;;;;;;;35.90;26.75;;;10.10;99.90;;;;;;6216728;23;20051;-68
2022/12/25 08:48:49;;;;;;;35.95;28.00;;;10.10;99.90;;;;;;6216786;23;20066;-68
2022/12/25 08:52:16;;;;;;;36.03;29.38;;;10.10;99.90;;;;;;6216627;23;20028;-68
2022/12/25 09:12:48;;;;;;;47.03;35.30;;;10.20;99.90;;;;;;5790871;24;20019;-68
2022/12/25 09:15:47;;;;;;;48.20;38.47;;;10.30;99.90;;;;;;5814297;24;20086;-68
2022/12/25 09:18:26;;;;;;;;;;;;;;;;;;;;;
2022/12/25 09:21:01;;;;;;;46.65;37.42;;;10.30;99.90;;;;;;5817451;24;20429;-68
2022/12/25 09:23:27;;;;;;;55.05;40.72;;;10.30;99.90;;;;;;5915549;23;20020;-70
2022/12/25 09:25:53;;;;;;;50.95;39.17;;;10.30;99.90;;;;;;6140764;23;20374;-70
2022/12/25 09:28:20;;;;;;;49.78;37.63;;;10.30;99.90;;;;;;6213879;23;20051;-70
2022/12/25 09:30:49;;;;;;;49.75;36.83;;;10.40;99.90;;;;;;6212470;23;20031;-70
2022/12/25 09:33:15;;;;;;;46.40;36.22;;;10.40;99.90;;;;;;6214063;23;20005;-69
2022/12/25 09:35:41;;;;;;;42.70;33.83;;;10.40;99.90;;;;;;6216095;23;20403;-70
2022/12/25 09:38:06;;;;;;;45.55;36.53;;;10.40;99.90;;;;;;6216203;23;20008;-70
2022/12/25 09:40:33;;;;;;;44.70;35.53;;;10.40;99.90;;;;;;6215519;23;20016;-69
2022/12/25 09:43:00;;;;;;;57.10;43.42;;;10.40;99.90;;;;;;6188892;23;20398;-69
2022/12/25 09:45:32;;;;;;;60.63;43.72;;;10.50;99.90;;;;;;6215599;23;20000;-69
2022/12/25 09:47:58;;;;;;;54.78;39.15;;;10.50;99.90;;;;;;6215925;23;20067;-70
2022/12/25 09:50:40;;;;;;;44.78;35.35;;;10.50;99.90;;;;;;6216099;23;20001;-70
2022/12/25 09:53:17;;;;;;;45.47;34.25;;;10.50;99.90;;;;;;6214143;23;20004;-70
2022/12/25 09:56:09;;;;;;;40.95;32.53;;;10.50;99.90;;;;;;6212653;23;20008;-70
2022/12/25 09:58:35;;;;;;;40.78;31.98;;;10.50;99.90;;;;;;6212414;23;20016;-69
2022/12/25 10:01:30;;;;;;;41.75;29.42;;;10.50;99.90;;;;;;6216056;23;20012;-70
2022/12/25 10:04:20;;;;;;;36.67;28.83;;;10.50;99.90;;;;;;6215740;23;20442;-70
2022/12/25 10:07:10;;;;;;;41.85;28.48;;;10.50;99.90;;;;;;6215959;23;20008;-70
2022/12/25 10:10:11;;;;;;;36.88;28.33;;;10.50;99.90;;;;;;6215635;23;20272;-70
2022/12/25 10:12:55;;;;;;;39.97;27.33;;;10.50;99.90;;;;;;6146051;23;20008;-69
2022/12/25 10:15:32;;;;;;;38.03;31.33;;;10.60;99.90;;;;;;6214722;23;20080;-70
2022/12/25 10:18:29;;;;;;;49.63;35.60;;;10.60;99.90;;;;;;6215281;23;20001;-69
2022/12/25 10:20:59;;;;;;;49.67;37.33;;;10.60;99.90;;;;;;6215066;23;20095;-70
2022/12/25 10:23:49;;;;;;;40.30;30.73;;;10.60;99.90;;;;;;6215059;23;20055;-70
2022/12/25 10:26:21;;;;;;;37.97;27.13;;;10.60;99.90;;;;;;6216856;23;19997;-70
2022/12/25 10:28:52;;;;;;;34.83;24.80;;;10.60;99.90;;;;;;6215882;23;20099;-70
2022/12/25 10:31:36;;;;;;;29.13;24.52;;;10.60;99.90;;;;;;6216110;23;20430;-69
2022/12/25 10:34:04;;;;;;;29.00;22.45;;;10.60;99.90;;;;;;6216140;23;20004;-70
2022/12/25 10:36:31;;;;;;;29.00;18.98;;;10.60;99.90;;;;;;6216041;23;20011;-69
2022/12/25 10:42:47;;;;;;;25.02;20.00;;;10.60;99.90;;;;;;6123015;23;20100;-69
2022/12/25 10:45:27;;;;;;;;;;;10.60;99.90;;;;;;6216401;23;20012;-70
2022/12/25 10:48:49;;;;;;;22.73;17.15;;;10.60;99.90;;;;;;6216188;23;19923;-70
2022/12/25 10:51:35;;;;;;;22.55;17.65;;;10.70;99.90;;;;;;6066626;23;20066;-69
2022/12/25 10:54:50;;;;;;;;;;;;;;;;;;;;;
2022/12/25 10:57:25;;;;;;;27.25;18.98;;;10.60;99.90;;;;;;6210633;23;20083;-69
2022/12/25 11:03:53;;;;;;;28.80;19.08;;;10.70;99.90;;;;;;6215384;23;20027;-69
2022/12/25 11:06:29;;;;;;;27.95;20.05;;;10.70;99.90;;;;;;6094059;23;20440;-69
2022/12/25 11:09:02;;;;;;;41.75;21.10;;;10.70;99.90;;;;;;6215415;23;20346;-69
2022/12/25 11:11:29;;;;;;;30.92;20.08;;;10.70;99.90;;;;;;6215366;23;20008;-69
2022/12/25 11:14:00;;;;;;;28.20;22.38;;;10.70;99.90;;;;;;6215387;23;20074;-69
2022/12/25 11:16:38;;;;;;;42.35;23.85;;;10.80;99.90;;;;;;6214803;23;20323;-70
2022/12/25 11:19:29;;;;;;;31.77;22.83;;;10.80;99.90;;;;;;6212306;23;20015;-69
2022/12/25 11:21:58;;;;;;;30.42;24.70;;;10.80;99.90;;;;;;6168314;23;20020;-69
2022/12/25 11:24:32;;;;;;;31.58;24.92;;;10.80;99.90;;;;;;6213141;23;20127;-69
2022/12/25 11:27:03;;;;;;;31.25;25.17;;;10.80;99.90;;;;;;6188221;23;20419;-69
2022/12/25 11:29:46;;;;;;;30.33;23.40;;;10.80;99.90;;;;;;6214972;23;20000;-71
2022/12/25 11:32:41;;;;;;;29.00;23.85;;;10.80;99.90;;;;;;6215100;23;20012;-70
2022/12/25 11:35:16;;;;;;;31.35;23.50;;;10.80;99.90;;;;;;6209196;23;20016;-69
2022/12/25 11:37:51;;;;;;;31.42;25.10;;;10.80;99.90;;;;;;6214613;23;20020;-72
2022/12/25 11:40:34;;;;;;;37.85;25.90;;;10.80;99.90;;;;;;6214699;23;20008;-70
2022/12/25 11:43:29;;;;;;;32.40;24.20;;;10.80;99.90;;;;;;6215030;23;20000;-69
2022/12/25 11:46:08;;;;;;;31.33;23.23;;;10.80;99.90;;;;;;6201897;23;20503;-70
2022/12/25 11:48:40;;;;;;;29.58;22.45;;;10.80;99.90;;;;;;6214793;23;19997;-70
2022/12/25 11:51:08;;;;;;;26.90;22.33;;;10.90;99.90;;;;;;6215061;23;20046;-71
2022/12/25 11:53:40;;;;;;;26.70;21.50;;;10.90;99.90;;;;;;6189531;23;20007;-81
2022/12/25 11:56:28;;;;;;;29.63;23.43;;;10.90;99.90;;;;;;6214806;23;20481;-72
2022/12/25 11:59:02;;;;;;;27.73;21.65;;;10.80;99.90;;;;;;6215068;23;20227;-73
2022/12/25 12:01:46;;;;;;;27.73;21.42;;;10.80;99.90;;;;;;6214835;23;20385;-72
2022/12/25 12:04:25;;;;;;;28.40;23.27;;;10.90;99.90;;;;;;6214772;23;20003;-72
2022/12/25 12:06:57;;;;;;;26.13;21.38;;;10.90;99.90;;;;;;6214979;23;20072;-72
2022/12/25 12:09:33;;;;;;;29.40;22.93;;;10.90;99.90;;;;;;6214906;23;20438;-72
2022/12/25 12:12:19;;;;;;;35.90;23.80;;;10.90;99.90;;;;;;6188512;23;20005;-74
2022/12/25 12:15:03;;;;;;;23.98;20.15;;;10.90;99.90;;;;;;6216114;23;20304;-74
2022/12/25 12:17:30;;;;;;;28.63;20.95;;;10.90;99.90;;;;;;6216615;23;20072;-72
2022/12/25 12:19:57;;;;;;;26.88;21.20;;;10.90;99.90;;;;;;6217699;23;20040;-73
2022/12/25 12:30:05;;;;;;;29.77;24.98;;;10.90;99.90;;;;;;6067599;23;20135;-72
2022/12/25 12:39:38;;;;;;;30.45;20.70;;;10.90;99.90;;;;;;6067345;23;20021;-72
2022/12/25 12:45:35;;;;;;;30.05;20.50;;;10.90;99.90;;;;;;5981335;24;20008;-72
2022/12/25 12:48:01;;;;;;;29.80;22.95;;;10.90;99.90;;;;;;6213636;23;20339;-72
2022/12/25 12:50:39;;;;;;;30.80;21.17;;;10.90;99.90;;;;;;6216868;23;20342;-72
2022/12/25 12:53:23;;;;;;;28.77;22.38;;;10.90;99.90;;;;;;6216485;23;20000;-73
2022/12/25 12:55:51;;;;;;;27.85;22.73;;;10.90;99.90;;;;;;6189940;23;20031;-73
2022/12/25 12:58:35;;;;;;;26.55;22.10;;;10.90;99.90;;;;;;6189757;23;20266;-72
2022/12/25 13:01:29;;;;;;;30.48;23.30;;;10.90;99.90;;;;;;6187748;23;20043;-72
2022/12/25 13:04:25;;;;;;;34.22;25.50;;;10.90;99.90;;;;;;6215704;23;20331;-73
2022/12/25 13:07:16;;;;;;;32.60;22.55;;;10.90;99.90;;;;;;6215926;23;20024;-82
2022/12/25 13:10:05;;;;;;;29.40;22.23;;;10.90;99.90;;;;;;6199288;23;20055;-74
2022/12/25 13:12:31;;;;;;;28.70;23.17;;;10.90;99.90;;;;;;6216630;23;20431;-72
2022/12/25 13:14:57;;;;;;;30.50;24.63;;;10.90;99.90;;;;;;6216319;23;20031;-72
2022/12/25 13:17:25;;;;;;;32.97;25.45;;;10.90;99.90;;;;;;6216109;23;20428;-72
2022/12/25 13:19:55;;;;;;;30.58;24.13;;;10.90;99.90;;;;;;6216393;23;20096;-74
2022/12/25 13:22:33;;;;;;;31.33;24.67;;;10.90;99.90;;;;;;6216038;23;20474;-74
2022/12/25 13:25:16;;;;;;;29.55;23.60;;;10.90;99.90;;;;;;6216337;23;20091;-73
2022/12/25 13:27:42;;;;;;;30.35;23.90;;;10.90;99.90;;;;;;6216104;23;20009;-73
2022/12/25 13:30:13;;;;;;;32.75;24.27;;;10.90;99.90;;;;;;6215842;23;20004;-72
2022/12/25 13:32:40;;;;;;;33.22;25.17;;;10.90;99.90;;;;;;6215510;23;20012;-75
2022/12/25 13:35:13;;;;;;;27.83;22.67;;;10.90;99.90;;;;;;6215853;23;20000;-74
2022/12/25 13:37:39;;;;;;;26.95;21.08;;;11.00;99.90;;;;;;6216656;23;20012;-72
2022/12/25 13:40:16;;;;;;;25.25;19.45;;;10.90;99.90;;;;;;6216974;23;20009;-72
2022/12/25 13:42:46;;;;;;;21.13;17.08;;;11.00;99.90;;;;;;6216522;23;20001;-73
2022/12/25 13:45:12;;;;;;;25.55;18.48;;;10.90;99.90;;;;;;6190488;23;20024;-74
2022/12/25 14:02:07;;;;;;;25.33;19.02;;;11.00;99.90;;;;;;5926036;24;20036;-73
2022/12/25 14:11:44;;;;;;;25.90;18.80;;;11.00;99.90;;;;;;6094999;23;20053;-72
2022/12/25 14:14:24;;;;;;;25.85;18.90;;;11.00;99.90;;;;;;6094830;23;20006;-73
2022/12/25 14:16:55;;;;;;;22.55;17.67;;;11.00;99.90;;;;;;6150695;23;20313;-74
2022/12/25 14:19:23;;;;;;;28.60;18.23;;;11.00;99.90;;;;;;6216122;23;20394;-76
2022/12/25 14:22:03;;;;;;;28.70;20.40;;;11.00;99.90;;;;;;6188702;23;20020;-74
2022/12/25 14:24:32;;;;;;;31.40;21.77;;;11.00;99.90;;;;;;6189323;23;20363;-74
2022/12/25 14:27:01;;;;;;;31.50;23.27;;;11.00;99.90;;;;;;6215786;23;20374;-74
2022/12/25 14:29:38;;;;;;;29.23;24.00;;;11.00;99.90;;;;;;6215832;23;20004;-74
2022/12/25 14:32:06;;;;;;;31.90;24.67;;;11.00;99.90;;;;;;6215548;23;19996;-73
2022/12/25 14:34:33;;;;;;;33.28;24.80;;;11.00;99.90;;;;;;6215872;23;20304;-75
2022/12/25 14:37:00;;;;;;;34.38;25.63;;;10.90;99.90;;;;;;6215839;23;20465;-74
2022/12/25 14:39:29;;;;;;;31.60;25.80;;;11.00;99.90;;;;;;6215817;23;20423;-75
2022/12/25 14:41:55;;;;;;;32.95;25.08;;;11.00;99.90;;;;;;6215355;23;20431;-73
2022/12/25 14:44:32;;;;;;;28.52;24.23;;;11.00;99.90;;;;;;6215449;23;20007;-71
2022/12/25 14:47:24;;;;;;;34.95;26.42;;;11.00;99.90;;;;;;6215517;23;20350;-73
2022/12/25 14:49:52;;;;;;;35.37;28.00;;;11.00;99.90;;;;;;6208965;23;20352;-72
2022/12/25 14:52:39;;;;;;;36.05;28.70;;;11.00;99.90;;;;;;6215633;23;20001;-72
2022/12/25 14:55:15;;;;;;;32.13;26.05;;;11.00;99.90;;;;;;6189172;23;20054;-71
2022/12/25 14:57:47;;;;;;;34.40;27.20;;;10.90;99.90;;;;;;6215989;23;20458;-70
2022/12/25 15:00:22;;;;;;;35.75;28.85;;;10.90;99.90;;;;;;6215328;23;20139;-71
2022/12/25 15:02:48;;;;;;;33.95;27.77;;;10.90;99.90;;;;;;6215165;23;20005;-72
2022/12/25 15:05:34;;;;;;;37.40;28.95;;;10.90;99.90;;;;;;6215151;23;20009;-74
2022/12/25 15:08:07;;;;;;;39.83;29.05;;;10.90;99.90;;;;;;6216565;23;20003;-71
2022/12/25 15:10:34;;;;;;;38.42;27.83;;;10.90;99.90;;;;;;6216177;23;20360;-71
2022/12/25 15:13:06;;;;;;;34.97;29.38;;;10.90;99.90;;;;;;6216341;23;20312;-71
2022/12/25 15:16:19;;;;;;;43.47;30.02;;;10.90;99.90;;;;;;6216398;23;20072;-71
2022/12/25 15:22:37;;;;;;;42.20;28.02;;;10.90;99.90;;;;;;6065342;23;20365;-72
2022/12/25 15:35:32;;;;;;;38.67;28.98;;;10.80;99.90;;;;;;6094532;23;20017;-72
2022/12/25 15:37:58;;;;;;;37.10;29.20;;;10.80;99.90;;;;;;6085990;23;20333;-71
2022/12/25 15:40:24;;;;;;;39.88;31.58;;;10.80;99.90;;;;;;6122272;23;20333;-71
2022/12/25 15:42:50;;;;;;;36.45;30.17;;;10.80;99.90;;;;;;6172904;23;20378;-71
2022/12/25 15:45:25;;;;;;;44.10;33.40;;;10.80;99.90;;;;;;6184291;23;20033;-71
2022/12/25 15:47:51;;;;;;;45.17;32.85;;;10.80;99.90;;;;;;6184808;23;20031;-71
2022/12/25 15:50:19;;;;;;;42.20;32.33;;;10.80;99.90;;;;;;6184071;23;20056;-73
2022/12/25 16:18:20;;;;;;;40.58;31.73;;;;;;;;;;6315722;22;20061;-74
2022/12/25 16:20:46;;;;;;;41.35;32.03;;;;;;;;;;6288489;22;20341;-73
2022/12/25 16:23:12;;;;;;;44.50;32.80;;;;;;;;;;6315187;22;20328;-70
2022/12/25 16:25:38;;;;;;;47.60;39.22;;;;;;;;;;6313572;22;20310;-71
2022/12/25 16:28:08;;;;;;;50.45;40.28;;;;;;;;;;6314433;22;20416;-71
2022/12/25 16:30:34;;;;;;;50.42;33.58;;;;;;;;;;6314646;22;20298;-72
2022/12/25 16:33:00;;;;;;;85.38;61.05;;;;;;;;;;6315865;22;20379;-71
2022/12/25 16:35:26;;;;;;;106.10;69.45;;;;;;;;;;6316243;22;19995;-72
2022/12/25 16:37:52;;;;;;;56.60;43.15;;;;;;;;;;6316352;22;20070;-71
2022/12/25 16:40:19;;;;;;;55.33;40.35;;;;;;;;;;6315435;22;20555;-71
2022/12/25 16:42:45;;;;;;;62.33;44.90;;;;;;;;;;6316188;22;20009;-73
2022/12/25 16:45:11;;;;;;;68.70;49.83;;;;;;;;;;6315913;22;20452;-76
2022/12/25 16:47:37;;;;;;;59.17;42.85;;;;;;;;;;6316048;22;20003;-74
2022/12/25 16:50:04;;;;;;;50.40;37.00;;;;;;;;;;6315794;22;20497;-74
2022/12/25 16:52:31;;;;;;;49.40;34.78;;;;;;;;;;6315524;22;20429;-78
2022/12/25 16:54:57;;;;;;;47.50;36.42;;;;;;;;;;6315851;22;20421;-73
2022/12/25 16:57:24;;;;;;;46.90;35.67;;;;;;;;;;6316431;22;20124;-76
2022/12/25 16:59:50;;;;;;;45.90;36.20;;;;;;;;;;6315881;22;20045;-79
2022/12/25 17:02:17;;;;;;;53.92;43.42;;;;;;;;;;6315717;22;19999;-78
2022/12/25 17:04:44;;;;;;;58.10;44.67;;;;;;;;;;6283770;22;20010;-76
2022/12/25 17:07:11;;;;;;;50.55;40.83;;;;;;;;;;6309008;22;20003;-77
2022/12/25 17:09:37;;;;;;;53.35;39.92;;;;;;;;;;6308944;22;19999;-77
2022/12/25 17:12:04;;;;;;;59.13;43.10;;;;;;;;;;6308390;22;20476;-76
2022/12/25 17:14:30;;;;;;;86.78;57.65;;;;;;;;;;6308572;22;20011;-72
2022/12/25 17:16:56;;;;;;;124.15;75.28;;;;;;;;;;6309711;22;20332;-75
2022/12/25 17:19:23;;;;;;;116.25;73.88;;;;;;;;;;6309280;22;20333;-72
2022/12/25 17:21:50;;;;;;;101.55;66.13;;;;;;;;;;6308988;22;20434;-72
2022/12/25 17:24:17;;;;;;;94.55;61.35;;;;;;;;;;6309210;22;19999;-71
2022/12/25 17:48:12;;;;;;;48.50;34.70;;;;;;;;;;6067838;23;20010;-75
2022/12/25 17:57:00;;;;;;;;;;;;;;;;;;6123038;23;20126;-76
2022/12/25 17:59:28;;;;;;;50.13;36.00;;;;;;;;;;6117906;23;20084;-73
2022/12/25 18:01:55;;;;;;;49.80;38.25;;;;;;;;;;6093094;23;20407;-72
2022/12/25 18:04:21;;;;;;;54.38;40.70;;;;;;;;;;6277379;22;20337;-72
2022/12/25 18:06:47;;;;;;;55.30;39.95;;;;;;;;;;6307480;22;20591;-72
2022/12/25 18:09:13;;;;;;;52.17;38.25;;;;;;;;;;6307588;22;20000;-72
2022/12/25 18:11:41;;;;;;;49.97;38.08;;;;;;;;;;6306954;22;20324;-73
2022/12/25 18:14:08;;;;;;;61.15;43.70;;;;;;;;;;6307469;22;20011;-72
2022/12/25 18:16:35;;;;;;;105.38;66.53;;;;;;;;;;6307640;22;20106;-72
2022/12/25 18:19:02;;;;;;;109.40;66.05;;;;;;;;;;6307973;22;20493;-72
2022/12/25 18:21:28;;;;;;;105.28;65.28;;;;;;;;;;6307722;22;20325;-72
2022/12/25 18:23:55;;;;;;;91.18;58.75;;;;;;;;;;6308383;22;20000;-72
2022/12/25 18:26:21;;;;;;;87.55;57.53;;;;;;;;;;6307932;22;20455;-72